Time;durP1;ratioP1;P1;durP2;ratioP2;P2;SDS_P1;SDS_P2;PMS_P1;PMS_P2;Temp;Humidity;BMP_temperature;BMP_pressure;BME280_temperature;BME280_humidity;BME280_pressure;Samples;Min_cycle;Max_cycle;Signal;HPM_P1;HPM_P2
2024/03/15 00:02:08;;;;;;;12.63;6.70;;;13.40;86.80;;;;;;5071901;28;20477;-73
2024/03/15 00:04:34;;;;;;;12.13;7.28;;;13.40;86.80;;;;;;5058601;28;20420;-73
2024/03/15 00:07:01;;;;;;;10.77;6.55;;;13.40;86.80;;;;;;5073188;28;20278;-74
2024/03/15 00:09:27;;;;;;;11.18;7.68;;;13.40;86.70;;;;;;5060715;28;20016;-77
2024/03/15 00:11:52;;;;;;;12.32;7.03;;;13.40;86.70;;;;;;5064302;28;20461;-73
2024/03/15 00:14:18;;;;;;;13.40;7.18;;;13.40;86.70;;;;;;5076701;28;20064;-75
2024/03/15 00:16:43;;;;;;;11.13;6.45;;;13.40;86.70;;;;;;5074907;28;20401;-75
2024/03/15 00:19:09;;;;;;;10.63;6.25;;;13.40;86.80;;;;;;5059547;28;20049;-72
2024/03/15 00:21:36;;;;;;;11.23;6.53;;;13.40;86.80;;;;;;5074227;28;20354;-77
2024/03/15 00:24:03;;;;;;;11.77;6.75;;;13.40;86.90;;;;;;5079743;28;20028;-73
2024/03/15 00:26:32;;;;;;;12.00;6.78;;;13.40;86.70;;;;;;5059870;28;20384;-74
2024/03/15 00:28:58;;;;;;;12.32;6.68;;;13.40;86.70;;;;;;5059465;28;20075;-76
2024/03/15 00:31:24;;;;;;;15.25;7.20;;;13.40;86.70;;;;;;5078196;28;20713;-75
2024/03/15 00:33:49;;;;;;;10.20;6.68;;;13.50;86.80;;;;;;5078779;28;20099;-72
2024/03/15 00:36:18;;;;;;;10.10;6.53;;;13.50;86.70;;;;;;5075414;28;20436;-74
2024/03/15 00:38:43;;;;;;;10.52;6.00;;;13.40;86.70;;;;;;5074499;28;20591;-74
2024/03/15 00:41:09;;;;;;;10.90;6.75;;;13.40;86.70;;;;;;5066792;28;20165;-77
2024/03/15 00:43:37;;;;;;;11.00;6.72;;;13.40;86.80;;;;;;5057529;28;20040;-76
2024/03/15 00:46:03;;;;;;;10.45;6.65;;;13.40;86.70;;;;;;5055650;28;20032;-75
2024/03/15 00:48:29;;;;;;;10.57;6.95;;;13.50;86.80;;;;;;5046919;28;20169;-74
2024/03/15 00:50:54;;;;;;;12.52;6.95;;;13.40;86.80;;;;;;5050074;28;20062;-73
2024/03/15 00:53:20;;;;;;;11.68;6.53;;;13.40;86.90;;;;;;5052613;28;20342;-73
2024/03/15 00:55:45;;;;;;;11.95;6.93;;;13.40;86.80;;;;;;5055393;28;20052;-72
2024/03/15 00:58:11;;;;;;;11.35;6.55;;;13.50;86.80;;;;;;5052595;28;20020;-73
2024/03/15 01:00:37;;;;;;;11.60;6.53;;;13.40;86.70;;;;;;5053192;28;20060;-73
2024/03/15 01:03:03;;;;;;;12.48;7.28;;;13.40;86.90;;;;;;5052450;28;20196;-76
2024/03/15 01:05:28;;;;;;;11.20;6.57;;;13.40;86.90;;;;;;5053217;28;20037;-75
2024/03/15 01:07:54;;;;;;;13.70;7.10;;;13.40;86.90;;;;;;5052988;28;20032;-73
2024/03/15 01:10:20;;;;;;;11.20;6.78;;;13.30;87.00;;;;;;5049649;28;20029;-73
2024/03/15 01:12:46;;;;;;;10.70;6.60;;;13.30;87.10;;;;;;5054601;28;20021;-76
2024/03/15 01:15:12;;;;;;;10.63;6.88;;;13.40;87.10;;;;;;5051724;28;20977;-71
2024/03/15 01:17:38;;;;;;;10.25;6.20;;;13.30;87.10;;;;;;5054332;28;20066;-75
2024/03/15 01:20:08;;;;;;;10.95;7.18;;;13.30;87.30;;;;;;5051668;28;20044;-75
2024/03/15 01:22:34;;;;;;;11.88;6.97;;;13.30;87.40;;;;;;5054277;28;20086;-73
2024/03/15 01:24:59;;;;;;;11.45;6.72;;;13.20;87.40;;;;;;5051077;28;20044;-74
2024/03/15 01:27:25;;;;;;;10.98;6.47;;;13.20;87.50;;;;;;5048497;28;20052;-72
2024/03/15 01:29:53;;;;;;;12.27;6.68;;;13.10;87.50;;;;;;5059563;28;20047;-72
2024/03/15 01:32:19;;;;;;;12.13;6.35;;;13.20;87.50;;;;;;5060327;28;20033;-77
2024/03/15 01:34:45;;;;;;;10.85;6.45;;;13.10;87.70;;;;;;5057919;28;20082;-72
2024/03/15 01:37:11;;;;;;;9.68;6.50;;;13.10;87.80;;;;;;5048807;28;20044;-71
2024/03/15 01:39:37;;;;;;;11.25;6.60;;;13.10;87.90;;;;;;5058251;28;20051;-74
2024/03/15 01:42:03;;;;;;;10.95;6.35;;;13.10;88.00;;;;;;5056940;28;20381;-77
2024/03/15 01:44:54;;;;;;;10.80;6.47;;;13.10;88.00;;;;;;5057900;28;20044;-73
2024/03/15 01:47:27;;;;;;;12.15;6.80;;;13.10;88.00;;;;;;5055558;28;20025;-74
2024/03/15 01:49:54;;;;;;;10.60;6.55;;;13.20;88.10;;;;;;5055086;28;20025;-74
2024/03/15 01:52:28;;;;;;;10.60;6.13;;;13.20;88.00;;;;;;5060441;28;20052;-74
2024/03/15 01:54:57;;;;;;;9.95;6.32;;;13.20;88.00;;;;;;5052833;28;20071;-76
2024/03/15 01:57:23;;;;;;;12.68;6.32;;;13.20;88.00;;;;;;5056790;28;20044;-74
2024/03/15 01:59:48;;;;;;;13.10;6.63;;;13.20;88.10;;;;;;5056745;28;20040;-76
2024/03/15 02:02:14;;;;;;;13.82;6.45;;;13.30;88.10;;;;;;5058437;28;20040;-77
2024/03/15 02:04:40;;;;;;;11.77;7.50;;;13.20;88.10;;;;;;5058365;28;20042;-72
2024/03/15 02:07:06;;;;;;;11.65;7.43;;;13.20;88.10;;;;;;5054046;28;20651;-74
2024/03/15 02:09:32;;;;;;;11.30;6.88;;;13.20;88.10;;;;;;5052988;28;20047;-76
2024/03/15 02:11:59;;;;;;;13.60;7.53;;;13.20;88.20;;;;;;5057522;28;20024;-74
2024/03/15 02:14:25;;;;;;;13.32;7.07;;;13.20;88.20;;;;;;5058588;28;20098;-77
2024/03/15 02:16:53;;;;;;;10.35;5.70;;;13.20;88.30;;;;;;5058300;28;20063;-72
2024/03/15 02:19:19;;;;;;;12.20;6.50;;;13.10;88.30;;;;;;5053599;28;20021;-76
2024/03/15 02:21:47;;;;;;;11.15;6.32;;;13.10;88.30;;;;;;5055399;28;20036;-77
2024/03/15 02:24:13;;;;;;;10.95;6.70;;;13.10;88.40;;;;;;5057317;28;20060;-76
2024/03/15 02:26:39;;;;;;;10.38;6.03;;;13.10;88.30;;;;;;5052785;28;20056;-73
2024/03/15 02:29:05;;;;;;;9.73;5.78;;;13.10;88.50;;;;;;5053152;28;20471;-76
2024/03/15 02:31:31;;;;;;;9.38;6.13;;;13.10;88.70;;;;;;5057557;28;20443;-73
2024/03/15 02:33:57;;;;;;;11.52;6.38;;;13.00;88.70;;;;;;5057899;28;20099;-73
2024/03/15 02:36:24;;;;;;;9.82;5.97;;;13.00;88.80;;;;;;5054379;28;20217;-74
2024/03/15 02:38:49;;;;;;;12.63;6.00;;;13.00;89.00;;;;;;5055297;28;20024;-72
2024/03/15 02:41:15;;;;;;;12.27;5.80;;;13.00;89.10;;;;;;5054999;28;20075;-77
2024/03/15 02:43:42;;;;;;;10.00;5.70;;;12.90;89.20;;;;;;5068246;28;20127;-73
2024/03/15 02:46:07;;;;;;;12.05;5.60;;;13.00;89.30;;;;;;5074506;28;20033;-73
2024/03/15 02:48:38;;;;;;;12.20;6.20;;;13.00;89.30;;;;;;5072976;28;20353;-76
2024/03/15 02:51:04;;;;;;;11.00;5.72;;;13.00;89.30;;;;;;5073537;28;20033;-74
2024/03/15 02:53:31;;;;;;;9.02;5.70;;;13.00;89.30;;;;;;5074593;28;20013;-75
2024/03/15 02:55:58;;;;;;;8.52;4.93;;;12.90;89.40;;;;;;5075277;28;20041;-76
2024/03/15 02:58:23;;;;;;;11.25;6.07;;;13.00;89.40;;;;;;5072992;28;20024;-76
2024/03/15 03:00:50;;;;;;;10.23;5.95;;;12.90;89.60;;;;;;5072252;28;20047;-71
2024/03/15 03:03:16;;;;;;;9.68;5.28;;;13.00;89.50;;;;;;5071171;28;20020;-78
2024/03/15 03:05:42;;;;;;;11.05;5.68;;;13.00;89.50;;;;;;5054144;28;20109;-76
2024/03/15 03:08:07;;;;;;;9.27;5.15;;;13.00;89.50;;;;;;5057715;28;20024;-73
2024/03/15 03:10:33;;;;;;;9.60;5.40;;;13.00;89.70;;;;;;5060299;28;20531;-75
2024/03/15 03:13:00;;;;;;;9.98;4.88;;;13.10;89.60;;;;;;5059407;28;20020;-75
2024/03/15 03:15:26;;;;;;;8.52;4.97;;;13.20;89.40;;;;;;5056593;28;20040;-75
2024/03/15 03:17:51;;;;;;;9.77;5.50;;;13.20;89.30;;;;;;5078990;28;20032;-73
2024/03/15 03:20:23;;;;;;;10.80;4.53;;;13.30;89.30;;;;;;5075063;28;20116;-78
2024/03/15 03:22:51;;;;;;;9.95;5.05;;;13.30;89.30;;;;;;5074669;28;20016;-73
2024/03/15 03:25:18;;;;;;;9.88;4.03;;;13.30;89.20;;;;;;5074116;28;20032;-77
2024/03/15 03:27:44;;;;;;;10.73;3.80;;;13.30;89.40;;;;;;5077269;28;20099;-76
2024/03/15 03:30:10;;;;;;;6.90;3.60;;;13.40;89.60;;;;;;5074783;28;20131;-75
2024/03/15 03:32:36;;;;;;;7.20;3.80;;;13.40;89.60;;;;;;5080580;28;20027;-77
2024/03/15 03:35:04;;;;;;;7.47;3.38;;;13.40;89.80;;;;;;5072025;28;20044;-74
2024/03/15 03:37:33;;;;;;;8.55;3.72;;;13.30;89.80;;;;;;5060203;28;20144;-75
2024/03/15 03:39:59;;;;;;;8.82;4.13;;;13.30;89.80;;;;;;5066461;28;20483;-74
2024/03/15 03:42:26;;;;;;;9.15;4.00;;;13.30;90.20;;;;;;5069676;28;20024;-74
2024/03/15 03:44:53;;;;;;;7.53;3.72;;;13.30;90.10;;;;;;5057043;28;20031;-75
2024/03/15 03:47:19;;;;;;;12.43;4.68;;;13.30;90.20;;;;;;5069302;28;20202;-74
2024/03/15 03:49:47;;;;;;;8.60;3.75;;;13.20;90.30;;;;;;5059143;28;20373;-77
2024/03/15 03:52:14;;;;;;;11.55;4.00;;;13.20;90.40;;;;;;5076196;28;20032;-75
2024/03/15 03:54:39;;;;;;;12.45;4.13;;;13.30;90.50;;;;;;5055715;28;20050;-73
2024/03/15 03:57:05;;;;;;;7.38;3.63;;;13.30;90.50;;;;;;5071531;28;20396;-73
2024/03/15 03:59:30;;;;;;;8.27;3.70;;;13.40;90.30;;;;;;5058534;28;20353;-74
2024/03/15 04:01:56;;;;;;;6.65;3.78;;;13.40;90.10;;;;;;5077257;28;20024;-73
2024/03/15 04:04:22;;;;;;;7.53;3.67;;;13.50;90.00;;;;;;5060309;28;20056;-75
2024/03/15 04:06:51;;;;;;;9.30;3.83;;;13.50;89.90;;;;;;5069628;28;20537;-75
2024/03/15 04:09:18;;;;;;;8.95;3.58;;;13.40;89.80;;;;;;5052678;28;20687;-73
2024/03/15 04:11:48;;;;;;;9.07;4.28;;;13.40;90.00;;;;;;5058495;28;20555;-73
2024/03/15 04:14:14;;;;;;;9.82;4.20;;;13.40;89.90;;;;;;5071728;28;20226;-75
2024/03/15 04:16:40;;;;;;;7.97;4.32;;;13.30;90.10;;;;;;5068164;28;20044;-73
2024/03/15 04:19:08;;;;;;;9.05;4.63;;;13.30;90.20;;;;;;5088671;28;20032;-76
2024/03/15 04:21:34;;;;;;;8.65;4.32;;;13.30;90.30;;;;;;5088332;28;20032;-74
2024/03/15 04:24:03;;;;;;;8.63;4.68;;;13.30;90.20;;;;;;5074056;28;20073;-71
2024/03/15 04:26:31;;;;;;;8.73;4.65;;;13.30;90.30;;;;;;5071661;28;20036;-73
2024/03/15 04:28:57;;;;;;;10.57;3.97;;;13.30;90.40;;;;;;5076772;28;20256;-74
2024/03/15 04:31:23;;;;;;;8.52;4.28;;;13.30;90.40;;;;;;5072457;28;20028;-72
2024/03/15 04:33:52;;;;;;;7.35;4.43;;;13.30;90.30;;;;;;5071387;28;20386;-73
2024/03/15 04:36:17;;;;;;;11.10;4.75;;;13.30;90.40;;;;;;5070927;28;20036;-73
2024/03/15 04:38:43;;;;;;;10.25;4.68;;;13.30;90.40;;;;;;5075260;28;20024;-72
2024/03/15 04:41:09;;;;;;;10.85;4.88;;;13.30;90.50;;;;;;5073663;28;20028;-73
2024/03/15 04:43:38;;;;;;;8.68;4.40;;;13.30;90.60;;;;;;5075550;28;20101;-77
2024/03/15 04:46:04;;;;;;;8.40;4.72;;;13.30;90.80;;;;;;5071288;28;20032;-76
2024/03/15 04:48:30;;;;;;;11.30;5.00;;;13.20;90.80;;;;;;5053512;28;20012;-74
2024/03/15 04:50:56;;;;;;;12.90;4.40;;;13.30;90.90;;;;;;5062727;28;20484;-73
2024/03/15 04:53:22;;;;;;;11.25;4.32;;;13.30;90.90;;;;;;5060826;28;20071;-72
2024/03/15 04:55:47;;;;;;;8.50;4.20;;;13.30;90.90;;;;;;5071628;28;20040;-74
2024/03/15 04:58:13;;;;;;;8.60;4.50;;;13.30;91.10;;;;;;5071561;28;20084;-71
2024/03/15 05:00:38;;;;;;;10.32;4.20;;;13.30;91.20;;;;;;5050600;28;20032;-72
2024/03/15 05:03:04;;;;;;;8.68;4.63;;;13.20;91.20;;;;;;5076930;28;20548;-76
2024/03/15 05:05:30;;;;;;;10.43;5.10;;;13.20;91.30;;;;;;5063705;28;20122;-72
2024/03/15 05:07:56;;;;;;;9.18;4.60;;;13.20;91.40;;;;;;5079785;28;20038;-73
2024/03/15 05:10:22;;;;;;;10.50;4.38;;;13.20;91.40;;;;;;5077272;28;20035;-72
2024/03/15 05:12:49;;;;;;;9.20;4.70;;;13.20;91.50;;;;;;5079031;28;20456;-72
2024/03/15 05:15:15;;;;;;;9.90;5.13;;;13.20;91.60;;;;;;5079280;28;20437;-75
2024/03/15 05:17:41;;;;;;;9.52;4.57;;;13.20;91.50;;;;;;5058677;28;20111;-72
2024/03/15 05:20:12;;;;;;;9.15;4.82;;;13.10;91.70;;;;;;5072703;28;20406;-75
2024/03/15 05:22:37;;;;;;;8.95;4.53;;;13.10;91.70;;;;;;5075095;28;20012;-78
2024/03/15 05:25:07;;;;;;;12.07;5.75;;;13.10;91.80;;;;;;5064221;28;20555;-74
2024/03/15 05:27:33;;;;;;;10.38;4.93;;;13.10;91.90;;;;;;5066440;28;20021;-73
2024/03/15 05:30:00;;;;;;;9.80;4.90;;;13.10;91.90;;;;;;5059028;28;20376;-77
2024/03/15 05:32:26;;;;;;;11.65;5.15;;;13.10;92.10;;;;;;5080099;28;20131;-74
2024/03/15 05:34:53;;;;;;;12.05;5.25;;;13.10;92.30;;;;;;5062747;28;20036;-77
2024/03/15 05:37:19;;;;;;;10.63;5.35;;;13.10;92.50;;;;;;5071700;28;20024;-75
2024/03/15 05:39:45;;;;;;;13.32;5.80;;;13.10;92.70;;;;;;5075883;28;20036;-73
2024/03/15 05:42:11;;;;;;;11.30;5.50;;;13.10;92.90;;;;;;5071622;28;20712;-75
2024/03/15 05:44:37;;;;;;;10.73;5.80;;;13.10;93.00;;;;;;5079296;28;20052;-76
2024/03/15 05:47:02;;;;;;;9.98;5.55;;;13.00;93.30;;;;;;5079179;28;20123;-74
2024/03/15 05:49:28;;;;;;;10.23;5.47;;;13.00;93.40;;;;;;5074806;28;20461;-77
2024/03/15 05:51:54;;;;;;;11.60;5.68;;;13.00;93.50;;;;;;5078335;28;20031;-74
2024/03/15 05:54:20;;;;;;;13.02;5.82;;;13.00;93.60;;;;;;5075254;28;20025;-73
2024/03/15 05:56:45;;;;;;;10.85;5.53;;;12.90;93.70;;;;;;5077215;28;20512;-73
2024/03/15 05:59:14;;;;;;;11.88;6.10;;;13.00;93.90;;;;;;5069389;28;20099;-74
2024/03/15 06:01:40;;;;;;;11.57;5.75;;;12.90;93.90;;;;;;5061894;28;20032;-75
2024/03/15 06:04:06;;;;;;;9.95;5.65;;;13.00;94.00;;;;;;5075563;28;20444;-77
2024/03/15 06:06:33;;;;;;;9.75;5.55;;;12.90;94.10;;;;;;5052136;28;20040;-74
2024/03/15 06:09:00;;;;;;;9.77;5.68;;;12.90;94.10;;;;;;5077541;28;20441;-75
2024/03/15 06:11:27;;;;;;;13.07;6.43;;;13.00;94.10;;;;;;5059530;28;20638;-74
2024/03/15 06:13:53;;;;;;;9.95;5.47;;;12.90;94.20;;;;;;5076963;28;20020;-76
2024/03/15 06:16:25;;;;;;;13.52;5.80;;;12.90;94.30;;;;;;5076605;28;20417;-78
2024/03/15 06:18:54;;;;;;;13.50;5.93;;;12.90;94.30;;;;;;5060643;28;20024;-72
2024/03/15 06:21:20;;;;;;;10.77;5.13;;;12.90;94.20;;;;;;5056131;28;20680;-73
2024/03/15 06:23:46;;;;;;;8.80;4.18;;;12.90;94.10;;;;;;5077112;28;20420;-75
2024/03/15 06:26:11;;;;;;;10.55;4.82;;;13.00;94.10;;;;;;5069828;28;20135;-73
2024/03/15 06:28:37;;;;;;;10.32;4.93;;;13.00;93.90;;;;;;5074448;28;20042;-73
2024/03/15 06:31:06;;;;;;;14.27;4.90;;;13.00;93.90;;;;;;5072858;28;20428;-76
2024/03/15 06:33:33;;;;;;;10.55;4.60;;;13.10;94.00;;;;;;5074341;28;20073;-73
2024/03/15 06:36:05;;;;;;;13.88;5.18;;;13.10;94.00;;;;;;5051673;28;20040;-73
2024/03/15 06:38:40;;;;;;;8.82;4.88;;;13.10;93.90;;;;;;5066136;28;20017;-73
2024/03/15 06:41:29;;;;;;;9.60;4.63;;;13.00;94.10;;;;;;5057868;28;20149;-73
2024/03/15 06:49:44;;;;;;;11.82;4.65;;;13.00;94.30;;;;;;5068125;28;20115;-75
2024/03/15 06:55:00;;;;;;;11.68;5.03;;;13.00;93.80;;;;;;5072466;28;20055;-77
2024/03/15 06:57:27;;;;;;;10.35;4.93;;;12.90;93.60;;;;;;5074604;28;20109;-79
2024/03/15 06:59:53;;;;;;;9.65;4.63;;;13.00;93.50;;;;;;5077749;28;20047;-80
2024/03/15 07:02:19;;;;;;;8.88;4.10;;;12.90;93.40;;;;;;5075049;28;20849;-79
2024/03/15 07:04:45;;;;;;;8.68;4.38;;;12.90;93.40;;;;;;5078119;28;20036;-78
2024/03/15 07:07:13;;;;;;;13.43;5.20;;;12.90;93.40;;;;;;5077274;28;20048;-76
2024/03/15 07:09:40;;;;;;;11.73;5.07;;;13.00;93.50;;;;;;5079569;28;20493;-78
2024/03/15 07:12:06;;;;;;;13.85;5.28;;;13.10;93.50;;;;;;5077937;28;20495;-82
2024/03/15 07:14:31;;;;;;;13.50;5.20;;;13.10;93.60;;;;;;5078913;28;20071;-77
2024/03/15 07:16:57;;;;;;;10.77;4.22;;;13.10;93.60;;;;;;5075263;28;20063;-75
2024/03/15 07:19:23;;;;;;;10.88;4.40;;;13.20;93.60;;;;;;5079313;28;20374;-87
2024/03/15 07:21:48;;;;;;;10.95;5.13;;;13.30;93.50;;;;;;5077463;28;20232;-76
2024/03/15 07:24:14;;;;;;;10.60;4.43;;;13.30;93.50;;;;;;5059105;28;20031;-74
2024/03/15 07:26:40;;;;;;;11.25;5.00;;;13.50;93.40;;;;;;5071822;28;20115;-79
2024/03/15 07:29:06;;;;;;;12.57;4.75;;;13.50;93.30;;;;;;5063295;28;20024;-84
2024/03/15 07:31:32;;;;;;;12.48;5.30;;;13.60;93.00;;;;;;5077160;28;20036;-82
2024/03/15 07:33:57;;;;;;;9.70;4.68;;;13.60;92.70;;;;;;5079963;28;20028;-81
2024/03/15 07:36:24;;;;;;;13.27;5.28;;;13.60;92.60;;;;;;5077968;28;20040;-82
2024/03/15 07:38:53;;;;;;;12.80;4.60;;;13.60;92.40;;;;;;5080942;28;20023;-84
2024/03/15 07:41:21;;;;;;;13.40;5.10;;;13.60;92.40;;;;;;5054901;28;20098;-80
2024/03/15 07:43:47;;;;;;;10.48;4.78;;;13.70;92.20;;;;;;5062887;28;20123;-77
2024/03/15 07:46:13;;;;;;;13.25;4.93;;;13.70;92.20;;;;;;5072024;28;20041;-81
2024/03/15 07:48:41;;;;;;;11.38;4.43;;;13.70;91.90;;;;;;5078751;28;20447;-76
2024/03/15 07:51:07;;;;;;;15.07;4.18;;;13.70;92.00;;;;;;5072682;28;20047;-77
2024/03/15 07:53:33;;;;;;;13.15;3.92;;;13.90;91.90;;;;;;5076032;28;20036;-74
2024/03/15 07:56:03;;;;;;;10.35;3.72;;;13.90;91.50;;;;;;5057104;28;20127;-76
2024/03/15 07:58:32;;;;;;;16.83;5.03;;;14.00;91.00;;;;;;5073743;28;20012;-80
2024/03/15 08:00:58;;;;;;;12.63;4.75;;;14.20;90.80;;;;;;5076547;28;20131;-84
2024/03/15 08:03:24;;;;;;;11.48;4.13;;;14.20;90.60;;;;;;5078430;28;20146;-80
2024/03/15 08:05:52;;;;;;;9.80;4.28;;;14.20;90.60;;;;;;5078316;28;20122;-80
2024/03/15 08:08:18;;;;;;;9.57;3.80;;;14.30;90.50;;;;;;5051606;28;20020;-84
2024/03/15 08:10:44;;;;;;;14.02;4.20;;;14.40;90.20;;;;;;5074714;28;20036;-81
2024/03/15 08:13:11;;;;;;;10.43;3.95;;;14.50;89.80;;;;;;5076914;28;20421;-78
2024/03/15 08:15:37;;;;;;;11.40;3.85;;;14.50;89.30;;;;;;5074432;28;20120;-84
2024/03/15 08:18:05;;;;;;;8.57;4.03;;;14.60;88.90;;;;;;5072573;28;20491;-84
2024/03/15 08:20:31;;;;;;;11.05;4.20;;;14.60;89.10;;;;;;5056116;28;20097;-77
2024/03/15 08:22:56;;;;;;;10.88;3.70;;;14.60;88.60;;;;;;5062898;28;20341;-81
2024/03/15 08:25:23;;;;;;;11.52;3.58;;;14.60;88.60;;;;;;5072758;28;20040;-77
2024/03/15 08:27:48;;;;;;;11.30;4.13;;;14.70;88.40;;;;;;5078964;28;20024;-84
2024/03/15 08:30:14;;;;;;;8.77;3.72;;;14.70;88.00;;;;;;5055150;28;20040;-81
2024/03/15 08:32:40;;;;;;;10.73;3.25;;;14.80;87.90;;;;;;5049744;28;20123;-81
2024/03/15 08:35:13;;;;;;;10.32;3.80;;;14.80;87.90;;;;;;5058896;28;20356;-78
2024/03/15 08:37:42;;;;;;;11.38;3.70;;;14.80;87.80;;;;;;5071915;28;20487;-81
2024/03/15 08:40:09;;;;;;;8.73;3.40;;;14.80;87.60;;;;;;5070120;28;20045;-79
2024/03/15 08:42:35;;;;;;;14.55;4.43;;;14.70;87.90;;;;;;5057135;28;20016;-79
2024/03/15 08:45:00;;;;;;;10.38;3.28;;;14.60;88.70;;;;;;5074503;28;20043;-81
2024/03/15 08:47:27;;;;;;;8.95;3.38;;;14.50;89.40;;;;;;5073685;28;20027;-80
2024/03/15 08:49:53;;;;;;;9.45;3.95;;;14.40;89.90;;;;;;5072137;28;20032;-80
2024/03/15 08:52:18;;;;;;;11.65;4.32;;;14.30;90.40;;;;;;5074749;28;20028;-80
2024/03/15 08:54:44;;;;;;;9.82;3.70;;;14.20;91.00;;;;;;5074079;28;20324;-79
2024/03/15 08:57:10;;;;;;;11.07;3.45;;;14.10;91.50;;;;;;5057850;28;20040;-77
2024/03/15 08:59:37;;;;;;;10.73;4.22;;;14.30;91.50;;;;;;5067549;28;20043;-79
2024/03/15 09:02:04;;;;;;;9.35;3.80;;;14.40;91.20;;;;;;5066920;28;20224;-79
2024/03/15 09:04:30;;;;;;;13.38;4.70;;;14.50;91.30;;;;;;5053602;28;20099;-80
2024/03/15 09:06:56;;;;;;;9.35;3.83;;;14.60;90.60;;;;;;5056293;28;20115;-79
2024/03/15 09:09:31;;;;;;;9.48;4.22;;;14.70;89.90;;;;;;5057601;28;20104;-77
2024/03/15 09:11:58;;;;;;;8.48;3.63;;;14.80;89.80;;;;;;5055995;28;20028;-76
2024/03/15 09:14:24;;;;;;;12.07;4.80;;;14.70;89.20;;;;;;5073785;28;20024;-76
2024/03/15 09:16:50;;;;;;;8.68;3.50;;;14.80;88.80;;;;;;5050738;28;20077;-74
2024/03/15 09:19:21;;;;;;;8.63;3.58;;;14.70;88.90;;;;;;5070521;28;20027;-75
2024/03/15 09:21:48;;;;;;;9.07;3.90;;;14.80;89.00;;;;;;5068501;28;20036;-74
2024/03/15 09:24:14;;;;;;;10.85;3.80;;;14.60;89.10;;;;;;5050141;28;20461;-76
2024/03/15 09:26:40;;;;;;;9.60;3.55;;;14.60;88.90;;;;;;5071276;28;20036;-75
2024/03/15 09:29:06;;;;;;;9.75;3.45;;;14.60;89.40;;;;;;5075197;28;20146;-75
2024/03/15 09:31:38;;;;;;;12.50;3.40;;;14.60;89.50;;;;;;5057321;28;20040;-77
2024/03/15 09:34:05;;;;;;;10.45;3.33;;;14.60;89.80;;;;;;5071725;28;20123;-75
2024/03/15 09:36:32;;;;;;;10.38;3.70;;;14.60;90.10;;;;;;5052926;28;20423;-75
2024/03/15 09:38:58;;;;;;;11.40;3.80;;;14.60;90.10;;;;;;5053651;28;20024;-77
2024/03/15 09:41:23;;;;;;;12.05;4.05;;;14.60;90.30;;;;;;5053872;28;20097;-75
2024/03/15 09:43:50;;;;;;;12.63;4.10;;;14.60;90.20;;;;;;5053201;28;20033;-75
2024/03/15 09:46:16;;;;;;;9.32;3.15;;;14.60;90.30;;;;;;5069300;28;20025;-75
2024/03/15 09:48:44;;;;;;;9.95;3.45;;;14.70;90.30;;;;;;5064289;28;20048;-77
2024/03/15 09:51:16;;;;;;;8.57;3.20;;;14.70;89.80;;;;;;5055397;28;20102;-81
2024/03/15 09:53:47;;;;;;;7.38;3.03;;;14.90;89.60;;;;;;5060148;28;20101;-81
2024/03/15 09:56:18;;;;;;;7.15;3.15;;;15.10;89.40;;;;;;5073328;28;20049;-84
2024/03/15 09:58:53;;;;;;;8.00;3.00;;;15.20;88.50;;;;;;5074540;28;20054;-83
2024/03/15 10:01:19;;;;;;;9.40;3.15;;;15.50;87.80;;;;;;5060593;28;20032;-83
2024/03/15 10:03:48;;;;;;;7.07;2.72;;;15.50;87.40;;;;;;5075772;28;20020;-77
2024/03/15 10:06:19;;;;;;;6.75;2.40;;;15.60;86.80;;;;;;5074669;28;20055;-80
2024/03/15 10:08:45;;;;;;;6.63;2.90;;;15.80;86.90;;;;;;5056138;28;20498;-83
2024/03/15 10:11:11;;;;;;;7.40;2.95;;;15.60;85.60;;;;;;5067811;28;20097;-82
2024/03/15 10:13:36;;;;;;;6.40;2.30;;;15.50;85.90;;;;;;5050531;28;20098;-78
2024/03/15 10:16:05;;;;;;;4.90;2.00;;;15.30;86.70;;;;;;5072186;28;20523;-79
2024/03/15 10:18:38;;;;;;;5.72;2.10;;;15.20;86.80;;;;;;5055020;28;20629;-85
2024/03/15 10:21:05;;;;;;;6.97;2.53;;;15.10;86.90;;;;;;5068443;28;20040;-81
2024/03/15 10:23:30;;;;;;;6.47;2.03;;;15.00;86.50;;;;;;5073532;28;20022;-78
2024/03/15 10:25:56;;;;;;;6.82;2.60;;;14.80;86.40;;;;;;5073299;28;20032;-77
2024/03/15 10:28:22;;;;;;;4.07;1.88;;;14.80;86.90;;;;;;5068404;28;20150;-79
2024/03/15 10:30:49;;;;;;;5.25;2.08;;;14.70;86.80;;;;;;5058957;28;20497;-76
2024/03/15 10:33:16;;;;;;;4.78;2.13;;;14.60;86.60;;;;;;5071702;28;20308;-78
2024/03/15 10:35:42;;;;;;;6.43;1.60;;;14.70;86.40;;;;;;5070705;28;20119;-76
2024/03/15 10:38:12;;;;;;;9.27;2.13;;;14.70;86.60;;;;;;5065950;28;20422;-78
2024/03/15 10:40:40;;;;;;;6.00;2.15;;;15.10;86.80;;;;;;5071934;28;20032;-78
2024/03/15 10:43:10;;;;;;;4.38;1.60;;;15.40;86.10;;;;;;5058647;28;20064;-76
2024/03/15 10:45:36;;;;;;;4.78;1.83;;;15.60;85.30;;;;;;5069088;28;20032;-75
2024/03/15 10:48:08;;;;;;;5.45;1.90;;;15.70;84.70;;;;;;5071816;28;20032;-78
2024/03/15 10:50:35;;;;;;;5.82;1.85;;;15.80;83.80;;;;;;5071314;28;20348;-79
2024/03/15 10:53:05;;;;;;;5.63;2.30;;;16.00;83.70;;;;;;5064461;28;20048;-79
2024/03/15 10:55:31;;;;;;;6.25;2.10;;;16.10;83.60;;;;;;5070693;28;20115;-77
2024/03/15 10:58:05;;;;;;;8.68;1.92;;;16.10;82.80;;;;;;5068507;28;20039;-78
2024/03/15 11:00:31;;;;;;;7.75;2.40;;;15.90;82.70;;;;;;5070723;28;20065;-79
2024/03/15 11:02:58;;;;;;;9.30;2.50;;;16.00;83.00;;;;;;5067917;28;20096;-77
2024/03/15 11:05:28;;;;;;;9.18;2.80;;;16.00;83.50;;;;;;5068092;28;20346;-75
2024/03/15 11:08:19;;;;;;;8.80;2.55;;;16.00;83.30;;;;;;5070294;28;20016;-78
2024/03/15 11:10:56;;;;;;;10.88;2.85;;;15.70;83.60;;;;;;5048605;28;20068;-77
2024/03/15 11:13:26;;;;;;;7.63;2.42;;;15.80;83.50;;;;;;5070608;28;20012;-78
2024/03/15 11:15:53;;;;;;;9.05;2.75;;;15.70;83.60;;;;;;5066792;28;20781;-76
2024/03/15 11:18:19;;;;;;;7.22;2.60;;;15.90;83.80;;;;;;5053685;28;20295;-78
2024/03/15 11:20:45;;;;;;;9.55;2.65;;;16.00;83.40;;;;;;5072807;28;20875;-77
2024/03/15 11:23:12;;;;;;;9.10;2.80;;;15.90;83.20;;;;;;5074580;28;20028;-75
2024/03/15 11:25:38;;;;;;;9.75;2.67;;;16.00;83.70;;;;;;5056566;28;20683;-76
2024/03/15 11:28:04;;;;;;;9.13;2.88;;;16.10;84.20;;;;;;5072975;28;20025;-78
2024/03/15 11:30:31;;;;;;;8.20;2.33;;;16.50;83.30;;;;;;5070765;28;20078;-78
2024/03/15 11:32:57;;;;;;;9.13;2.60;;;16.40;82.30;;;;;;5047465;28;20027;-78
2024/03/15 11:35:25;;;;;;;7.03;2.53;;;16.40;82.80;;;;;;5062796;28;20056;-78
2024/03/15 11:37:57;;;;;;;10.35;2.60;;;16.10;82.60;;;;;;5061430;28;20032;-77
2024/03/15 11:40:26;;;;;;;10.45;3.15;;;15.90;83.60;;;;;;5045900;28;20047;-78
2024/03/15 11:42:52;;;;;;;9.00;2.50;;;15.80;84.00;;;;;;5063094;28;20062;-78
2024/03/15 11:45:17;;;;;;;9.85;3.00;;;15.80;84.70;;;;;;5063966;28;20024;-76
2024/03/15 11:47:44;;;;;;;7.90;2.60;;;15.90;84.90;;;;;;5067306;28;20050;-77
2024/03/15 11:50:15;;;;;;;9.07;2.70;;;16.20;84.60;;;;;;5046131;28;20074;-77
2024/03/15 11:52:43;;;;;;;8.70;3.00;;;16.40;83.40;;;;;;5044425;28;20028;-77
2024/03/15 11:55:17;;;;;;;8.68;2.85;;;16.20;82.50;;;;;;5042298;28;20547;-78
2024/03/15 11:57:43;;;;;;;10.68;2.95;;;16.10;82.90;;;;;;5062741;28;20031;-77
2024/03/15 12:00:12;;;;;;;8.15;2.70;;;16.00;83.60;;;;;;5065421;28;20120;-79
2024/03/15 12:02:39;;;;;;;7.60;2.65;;;15.80;83.90;;;;;;5047462;28;20116;-78
2024/03/15 12:05:12;;;;;;;8.57;2.88;;;15.80;84.40;;;;;;5045371;28;20040;-77
2024/03/15 12:07:37;;;;;;;8.68;3.38;;;15.90;84.20;;;;;;5071364;28;20091;-78
2024/03/15 12:10:11;;;;;;;9.82;3.08;;;16.00;84.40;;;;;;5073051;28;20131;-79
2024/03/15 12:12:37;;;;;;;10.83;2.90;;;16.00;84.20;;;;;;5045523;28;20028;-78
2024/03/15 12:15:04;;;;;;;12.13;3.55;;;16.10;84.20;;;;;;5056624;28;20640;-79
2024/03/15 12:17:29;;;;;;;12.98;3.65;;;16.40;83.70;;;;;;5076311;28;20016;-79
2024/03/15 12:19:58;;;;;;;6.35;2.55;;;16.50;83.10;;;;;;5071179;28;20040;-79
2024/03/15 12:22:24;;;;;;;7.65;2.42;;;16.30;82.20;;;;;;5071117;28;20055;-78
2024/03/15 12:24:51;;;;;;;6.38;2.67;;;16.10;81.20;;;;;;5057252;28;20108;-78
2024/03/15 12:27:17;;;;;;;7.10;2.45;;;16.00;80.70;;;;;;5058303;28;20134;-77
2024/03/15 12:29:43;;;;;;;11.20;2.83;;;15.80;81.20;;;;;;5054274;28;20032;-77
2024/03/15 12:32:08;;;;;;;9.93;2.97;;;15.70;81.80;;;;;;5055365;28;20480;-78
2024/03/15 12:34:34;;;;;;;8.98;3.40;;;15.60;82.70;;;;;;5049426;28;20066;-78
2024/03/15 12:37:00;;;;;;;10.25;2.55;;;15.60;82.60;;;;;;5058186;28;20105;-77
2024/03/15 12:39:26;;;;;;;6.90;2.40;;;15.70;82.10;;;;;;5053223;28;20016;-77
2024/03/15 12:41:55;;;;;;;6.40;2.30;;;15.70;82.50;;;;;;5055584;28;20036;-79
2024/03/15 12:44:21;;;;;;;9.13;2.30;;;15.80;82.40;;;;;;5051871;28;20055;-77
2024/03/15 12:46:46;;;;;;;7.50;2.22;;;15.90;81.50;;;;;;5051036;28;20033;-77
2024/03/15 12:49:13;;;;;;;9.63;2.00;;;15.80;81.50;;;;;;5070640;28;20543;-76